Terminal Aerodrome Forecast
Issued by NWS

Home | Current Version | Previous Version | Text Only | Print | Product List | Glossary On
Versions: 1 2 3 4 5 6 7 8 9 10 11 12 13
000
FTUS45 KTFX 302300
TAFHVR
TAF
KHVR 302320Z 0100/0124 30015G22KT P6SM SCT060 BKN090
     FM010200 30015KT P6SM VCSH SCT035 OVC050
     FM011000 27010KT P6SM BKN080
     FM011700 30011KT P6SM VCSH BKN050=

USA.gov is the U.S. government's official web portal to all federal, state and local government web resources and services.